sensor_id;sensor_type;location;lat;lon;timestamp;pressure;altitude;pressure_sealevel;temperature;humidity
21300;BME280;10809;49.476;11.016;2023-07-30T00:01:40;97738.78;;;20.20;58.20
21300;BME280;10809;49.476;11.016;2023-07-30T00:04:14;97736.25;;;20.19;58.39
21300;BME280;10809;49.476;11.016;2023-07-30T00:06:44;97739.09;;;20.17;58.56
21300;BME280;10809;49.476;11.016;2023-07-30T00:09:17;97740.94;;;20.17;58.65
21300;BME280;10809;49.476;11.016;2023-07-30T00:11:48;97740.25;;;20.15;58.42
21300;BME280;10809;49.476;11.016;2023-07-30T00:14:18;97755.69;;;20.13;58.63
21300;BME280;10809;49.476;11.016;2023-07-30T00:16:49;97760.25;;;20.12;58.61
21300;BME280;10809;49.476;11.016;2023-07-30T00:19:20;97776.38;;;20.12;58.87
21300;BME280;10809;49.476;11.016;2023-07-30T00:21:53;97773.00;;;20.10;58.71
21300;BME280;10809;49.476;11.016;2023-07-30T00:24:27;97778.38;;;20.10;58.74
21300;BME280;10809;49.476;11.016;2023-07-30T00:26:57;97782.03;;;20.09;59.06
21300;BME280;10809;49.476;11.016;2023-07-30T00:29:28;97777.50;;;20.10;59.03
21300;BME280;10809;49.476;11.016;2023-07-30T00:31:58;97777.66;;;20.08;59.28
21300;BME280;10809;49.476;11.016;2023-07-30T00:34:29;97774.13;;;20.08;59.08
21300;BME280;10809;49.476;11.016;2023-07-30T00:36:59;97770.31;;;20.10;59.27
21300;BME280;10809;49.476;11.016;2023-07-30T00:39:30;97770.31;;;20.10;59.37
21300;BME280;10809;49.476;11.016;2023-07-30T00:42:00;97775.69;;;20.10;59.17
21300;BME280;10809;49.476;11.016;2023-07-30T00:44:31;97775.69;;;20.10;59.50
21300;BME280;10809;49.476;11.016;2023-07-30T00:47:13;97775.69;;;20.10;59.26
21300;BME280;10809;49.476;11.016;2023-07-30T00:49:44;97772.84;;;20.12;59.53
21300;BME280;10809;49.476;11.016;2023-07-30T00:52:19;97781.06;;;20.10;59.35
21300;BME280;10809;49.476;11.016;2023-07-30T00:54:54;97781.06;;;20.10;59.41
21300;BME280;10809;49.476;11.016;2023-07-30T00:57:27;97783.75;;;20.10;59.35
21300;BME280;10809;49.476;11.016;2023-07-30T00:59:57;97783.75;;;20.10;59.53
21300;BME280;10809;49.476;11.016;2023-07-30T01:02:29;97777.50;;;20.10;59.80
21300;BME280;10809;49.476;11.016;2023-07-30T01:05:06;97773.00;;;20.10;59.55
21300;BME280;10809;49.476;11.016;2023-07-30T01:07:39;97773.00;;;20.10;59.74
21300;BME280;10809;49.476;11.016;2023-07-30T01:10:10;97773.84;;;20.11;59.66
21300;BME280;10809;49.476;11.016;2023-07-30T01:12:42;97775.69;;;20.10;59.67
21300;BME280;10809;49.476;11.016;2023-07-30T01:15:16;97774.66;;;20.11;59.87
21300;BME280;10809;49.476;11.016;2023-07-30T01:17:49;97777.34;;;20.11;60.17
21300;BME280;10809;49.476;11.016;2023-07-30T01:20:30;97775.53;;;20.12;60.41
21300;BME280;10809;49.476;11.016;2023-07-30T01:23:01;97776.66;;;20.09;60.29
21300;BME280;10809;49.476;11.016;2023-07-30T01:25:36;97756.47;;;20.05;60.40
21300;BME280;10809;49.476;11.016;2023-07-30T01:28:12;97764.84;;;20.02;60.57
21300;BME280;10809;49.476;11.016;2023-07-30T01:30:48;97766.03;;;20.00;60.67
21300;BME280;10809;49.476;11.016;2023-07-30T01:33:32;97760.97;;;19.97;60.69
21300;BME280;10809;49.476;11.016;2023-07-30T01:36:05;97760.28;;;19.95;60.97
21300;BME280;10809;49.476;11.016;2023-07-30T01:38:42;97759.72;;;19.91;60.88
21300;BME280;10809;49.476;11.016;2023-07-30T01:41:14;97752.84;;;19.89;61.10
21300;BME280;10809;49.476;11.016;2023-07-30T01:43:45;97752.13;;;19.87;61.12
21300;BME280;10809;49.476;11.016;2023-07-30T01:46:22;97758.69;;;19.84;61.27
21300;BME280;10809;49.476;11.016;2023-07-30T01:48:53;97755.28;;;19.82;61.55
21300;BME280;10809;49.476;11.016;2023-07-30T01:51:23;97748.25;;;19.81;61.48
21300;BME280;10809;49.476;11.016;2023-07-30T01:53:53;97741.19;;;19.80;61.75
21300;BME280;10809;49.476;11.016;2023-07-30T01:56:24;97736.97;;;19.77;61.69
21300;BME280;10809;49.476;11.016;2023-07-30T01:58:54;97733.44;;;19.77;61.81
21300;BME280;10809;49.476;11.016;2023-07-30T02:01:31;97735.44;;;19.75;61.65
21300;BME280;10809;49.476;11.016;2023-07-30T02:04:02;97739.28;;;19.72;61.90
21300;BME280;10809;49.476;11.016;2023-07-30T02:06:32;97743.81;;;19.72;61.69
21300;BME280;10809;49.476;11.016;2023-07-30T02:09:03;97737.75;;;19.70;62.08
21300;BME280;10809;49.476;11.016;2023-07-30T02:11:34;97736.06;;;19.69;62.11
21300;BME280;10809;49.476;11.016;2023-07-30T02:14:04;97734.38;;;19.68;62.21
21300;BME280;10809;49.476;11.016;2023-07-30T02:16:35;97747.13;;;19.66;62.14
21300;BME280;10809;49.476;11.016;2023-07-30T02:19:06;97750.81;;;19.65;62.21
21300;BME280;10809;49.476;11.016;2023-07-30T02:21:39;97754.47;;;19.64;62.24
21300;BME280;10809;49.476;11.016;2023-07-30T02:24:12;97752.81;;;19.63;62.41
21300;BME280;10809;49.476;11.016;2023-07-30T02:26:43;97762.69;;;19.62;62.66
21300;BME280;10809;49.476;11.016;2023-07-30T02:29:13;97761.88;;;19.62;62.75
21300;BME280;10809;49.476;11.016;2023-07-30T02:31:44;97771.75;;;19.61;62.68
21300;BME280;10809;49.476;11.016;2023-07-30T02:34:14;97770.91;;;19.61;62.76
21300;BME280;10809;49.476;11.016;2023-07-30T02:36:45;97773.59;;;19.61;62.63
21300;BME280;10809;49.476;11.016;2023-07-30T02:39:20;97764.84;;;19.59;62.71
21300;BME280;10809;49.476;11.016;2023-07-30T02:42:00;97770.34;;;19.57;62.78
21300;BME280;10809;49.476;11.016;2023-07-30T02:44:49;97760.78;;;19.55;62.70
21300;BME280;10809;49.476;11.016;2023-07-30T02:47:33;97756.41;;;19.54;62.79
21300;BME280;10809;49.476;11.016;2023-07-30T02:50:05;97753.88;;;19.52;62.97
21300;BME280;10809;49.476;11.016;2023-07-30T02:52:49;97755.88;;;19.50;62.97
21300;BME280;10809;49.476;11.016;2023-07-30T02:55:30;97753.31;;;19.49;63.09
21300;BME280;10809;49.476;11.016;2023-07-30T02:58:02;97762.38;;;19.48;63.15
21300;BME280;10809;49.476;11.016;2023-07-30T03:01:07;97760.66;;;19.47;62.96
21300;BME280;10809;49.476;11.016;2023-07-30T03:03:39;97763.66;;;19.44;63.07
21300;BME280;10809;49.476;11.016;2023-07-30T03:06:13;97764.66;;;19.43;63.13
21300;BME280;10809;49.476;11.016;2023-07-30T03:09:04;97777.53;;;19.39;63.12
21300;BME280;10809;49.476;11.016;2023-07-30T03:12:06;97776.16;;;19.35;63.08
21300;BME280;10809;49.476;11.016;2023-07-30T03:14:57;97785.38;;;19.33;63.08
21300;BME280;10809;49.476;11.016;2023-07-30T03:17:40;97800.78;;;19.31;63.25
21300;BME280;10809;49.476;11.016;2023-07-30T03:20:24;97792.03;;;19.29;63.31
21300;BME280;10809;49.476;11.016;2023-07-30T03:22:57;97790.66;;;19.25;63.50
21300;BME280;10809;49.476;11.016;2023-07-30T03:25:38;97794.50;;;19.22;63.44
21300;BME280;10809;49.476;11.016;2023-07-30T03:28:28;97787.56;;;19.20;63.44
21300;BME280;10809;49.476;11.016;2023-07-30T03:31:00;97788.72;;;19.17;63.56
21300;BME280;10809;49.476;11.016;2023-07-30T03:33:31;97790.72;;;19.15;63.71
21300;BME280;10809;49.476;11.016;2023-07-30T03:36:05;97793.56;;;19.14;63.67
21300;BME280;10809;49.476;11.016;2023-07-30T03:38:43;97796.38;;;19.12;63.63
21300;BME280;10809;49.476;11.016;2023-07-30T03:41:14;97800.06;;;19.11;63.75
21300;BME280;10809;49.476;11.016;2023-07-30T03:43:47;97798.41;;;19.10;63.90
21300;BME280;10809;49.476;11.016;2023-07-30T03:46:23;97800.38;;;19.08;63.89
21300;BME280;10809;49.476;11.016;2023-07-30T03:48:54;97803.22;;;19.07;64.03
21300;BME280;10809;49.476;11.016;2023-07-30T03:51:25;97806.88;;;19.06;64.02
21300;BME280;10809;49.476;11.016;2023-07-30T03:53:59;97804.34;;;19.04;63.96
21300;BME280;10809;49.476;11.016;2023-07-30T03:56:34;97809.69;;;19.04;64.08
21300;BME280;10809;49.476;11.016;2023-07-30T03:59:06;97809.84;;;19.03;64.17
21300;BME280;10809;49.476;11.016;2023-07-30T04:01:40;97816.22;;;19.02;64.23
21300;BME280;10809;49.476;11.016;2023-07-30T04:04:20;97816.38;;;19.00;64.22
21300;BME280;10809;49.476;11.016;2023-07-30T04:06:55;97814.56;;;19.01;64.24
21300;BME280;10809;49.476;11.016;2023-07-30T04:09:27;97812.84;;;19.00;64.45
21300;BME280;10809;49.476;11.016;2023-07-30T04:12:07;97812.84;;;19.00;64.31
21300;BME280;10809;49.476;11.016;2023-07-30T04:14:39;97811.16;;;18.99;64.42
21300;BME280;10809;49.476;11.016;2023-07-30T04:17:14;97815.66;;;18.98;64.40
21300;BME280;10809;49.476;11.016;2023-07-30T04:19:45;97819.34;;;18.97;64.46
21300;BME280;10809;49.476;11.016;2023-07-30T04:22:18;97815.81;;;18.97;64.56
21300;BME280;10809;49.476;11.016;2023-07-30T04:24:52;97812.31;;;18.96;64.58
21300;BME280;10809;49.476;11.016;2023-07-30T04:27:47;97812.47;;;18.95;64.50
21300;BME280;10809;49.476;11.016;2023-07-30T04:30:25;97822.34;;;18.94;64.48
21300;BME280;10809;49.476;11.016;2023-07-30T04:33:06;97816.13;;;18.94;64.69
21300;BME280;10809;49.476;11.016;2023-07-30T04:35:43;97830.53;;;18.93;64.76
21300;BME280;10809;49.476;11.016;2023-07-30T04:38:20;97833.22;;;18.93;64.85
21300;BME280;10809;49.476;11.016;2023-07-30T04:41:01;97834.06;;;18.93;64.82
21300;BME280;10809;49.476;11.016;2023-07-30T04:43:42;97824.31;;;18.92;64.87
21300;BME280;10809;49.476;11.016;2023-07-30T04:46:16;97847.50;;;18.93;65.01
21300;BME280;10809;49.476;11.016;2023-07-30T04:48:48;97841.28;;;18.93;65.04
21300;BME280;10809;49.476;11.016;2023-07-30T04:51:22;97849.31;;;18.93;65.17
21300;BME280;10809;49.476;11.016;2023-07-30T04:53:57;97852.72;;;18.95;65.30
21300;BME280;10809;49.476;11.016;2023-07-30T04:56:42;97850.69;;;18.97;65.38
21300;BME280;10809;49.476;11.016;2023-07-30T04:59:13;97845.34;;;18.97;65.38
21300;BME280;10809;49.476;11.016;2023-07-30T05:01:43;97837.13;;;18.98;65.42
21300;BME280;10809;49.476;11.016;2023-07-30T05:04:15;97848.44;;;19.02;65.66
21300;BME280;10809;49.476;11.016;2023-07-30T05:06:45;97832.31;;;19.02;65.65
21300;BME280;10809;49.476;11.016;2023-07-30T05:09:16;97832.88;;;19.05;65.59
21300;BME280;10809;49.476;11.016;2023-07-30T05:11:49;97833.72;;;19.06;65.81
21300;BME280;10809;49.476;11.016;2023-07-30T05:14:19;97847.69;;;19.09;65.78
21300;BME280;10809;49.476;11.016;2023-07-30T05:16:52;97848.38;;;19.11;65.94
21300;BME280;10809;49.476;11.016;2023-07-30T05:19:22;97862.66;;;19.12;65.67
21300;BME280;10809;49.476;11.016;2023-07-30T05:21:53;97856.44;;;19.11;65.60
21300;BME280;10809;49.476;11.016;2023-07-30T05:24:27;97866.16;;;19.12;65.55
21300;BME280;10809;49.476;11.016;2023-07-30T05:26:58;97864.34;;;19.13;65.63
21300;BME280;10809;49.476;11.016;2023-07-30T05:29:29;97867.19;;;19.11;65.60
21300;BME280;10809;49.476;11.016;2023-07-30T05:32:06;97879.75;;;19.11;65.69
21300;BME280;10809;49.476;11.016;2023-07-30T05:34:37;97877.22;;;19.09;65.80
21300;BME280;10809;49.476;11.016;2023-07-30T05:37:11;97871.00;;;19.09;65.78
21300;BME280;10809;49.476;11.016;2023-07-30T05:39:51;97881.44;;;19.12;65.82
21300;BME280;10809;49.476;11.016;2023-07-30T05:42:22;97885.97;;;19.11;65.85
21300;BME280;10809;49.476;11.016;2023-07-30T05:44:55;97870.88;;;19.10;65.82
21300;BME280;10809;49.476;11.016;2023-07-30T05:47:26;97878.06;;;19.10;65.94
21300;BME280;10809;49.476;11.016;2023-07-30T05:49:57;97878.06;;;19.10;65.87
21300;BME280;10809;49.476;11.016;2023-07-30T05:52:31;97883.44;;;19.10;65.99
21300;BME280;10809;49.476;11.016;2023-07-30T05:55:05;97887.13;;;19.09;66.02
21300;BME280;10809;49.476;11.016;2023-07-30T05:57:36;97885.41;;;19.08;66.01
21300;BME280;10809;49.476;11.016;2023-07-30T06:00:07;97882.72;;;19.08;66.33
21300;BME280;10809;49.476;11.016;2023-07-30T06:02:44;97885.25;;;19.09;66.26
21300;BME280;10809;49.476;11.016;2023-07-30T06:05:24;97885.09;;;19.11;66.20
21300;BME280;10809;49.476;11.016;2023-07-30T06:07:55;97892.19;;;19.12;66.57
21300;BME280;10809;49.476;11.016;2023-07-30T06:10:29;97896.41;;;19.14;66.67
21300;BME280;10809;49.476;11.016;2023-07-30T06:13:00;97901.47;;;19.17;66.62
21300;BME280;10809;49.476;11.016;2023-07-30T06:15:32;97899.34;;;19.21;66.75
21300;BME280;10809;49.476;11.016;2023-07-30T06:18:03;97900.03;;;19.23;66.86
21300;BME280;10809;49.476;11.016;2023-07-30T06:20:35;97890.69;;;19.27;66.97
21300;BME280;10809;49.476;11.016;2023-07-30T06:23:09;97893.09;;;19.30;67.10
21300;BME280;10809;49.476;11.016;2023-07-30T06:25:40;97891.63;;;19.35;67.24
21300;BME280;10809;49.476;11.016;2023-07-30T06:28:16;97887.47;;;19.41;67.32
21300;BME280;10809;49.476;11.016;2023-07-30T06:30:48;97887.59;;;19.49;67.47
21300;BME280;10809;49.476;11.016;2023-07-30T06:33:28;97891.06;;;19.59;67.57
21300;BME280;10809;49.476;11.016;2023-07-30T06:36:03;97893.03;;;19.66;67.58
21300;BME280;10809;49.476;11.016;2023-07-30T06:38:35;97905.56;;;19.75;67.47
21300;BME280;10809;49.476;11.016;2023-07-30T06:41:06;97897.72;;;19.82;67.20
21300;BME280;10809;49.476;11.016;2023-07-30T06:43:46;97900.63;;;19.89;67.13
21300;BME280;10809;49.476;11.016;2023-07-30T06:46:17;97903.72;;;19.94;66.83
21300;BME280;10809;49.476;11.016;2023-07-30T06:48:47;97914.16;;;19.97;66.64
21300;BME280;10809;49.476;11.016;2023-07-30T06:51:24;97909.47;;;19.99;66.40
21300;BME280;10809;49.476;11.016;2023-07-30T06:53:57;97914.84;;;19.99;66.10
21300;BME280;10809;49.476;11.016;2023-07-30T06:56:28;97920.38;;;19.97;65.66
21300;BME280;10809;49.476;11.016;2023-07-30T06:58:58;97924.06;;;19.96;65.85
21300;BME280;10809;49.476;11.016;2023-07-30T07:01:29;97921.69;;;19.93;65.90
21300;BME280;10809;49.476;11.016;2023-07-30T07:04:03;97913.78;;;19.92;65.90
21300;BME280;10809;49.476;11.016;2023-07-30T07:06:33;97925.53;;;19.91;66.07
21300;BME280;10809;49.476;11.016;2023-07-30T07:09:05;97924.66;;;19.90;66.07
21300;BME280;10809;49.476;11.016;2023-07-30T07:11:45;97928.38;;;19.89;65.96
21300;BME280;10809;49.476;11.016;2023-07-30T07:14:25;97932.72;;;19.90;66.16
21300;BME280;10809;49.476;11.016;2023-07-30T07:16:58;97939.78;;;19.91;66.03
21300;BME280;10809;49.476;11.016;2023-07-30T07:19:29;97945.16;;;19.91;65.92
21300;BME280;10809;49.476;11.016;2023-07-30T07:22:04;97941.81;;;19.89;65.79
21300;BME280;10809;49.476;11.016;2023-07-30T07:24:54;97933.75;;;19.89;65.75
21300;BME280;10809;49.476;11.016;2023-07-30T07:27:25;97935.56;;;19.89;65.83
21300;BME280;10809;49.476;11.016;2023-07-30T07:29:57;97924.97;;;19.87;65.94
21300;BME280;10809;49.476;11.016;2023-07-30T07:32:28;97921.28;;;19.88;66.16
21300;BME280;10809;49.476;11.016;2023-07-30T07:35:04;97921.13;;;19.90;66.33
21300;BME280;10809;49.476;11.016;2023-07-30T07:37:36;97914.63;;;19.92;66.28
21300;BME280;10809;49.476;11.016;2023-07-30T07:40:07;97918.84;;;19.95;66.42
21300;BME280;10809;49.476;11.016;2023-07-30T07:42:43;97916.84;;;19.97;66.58
21300;BME280;10809;49.476;11.016;2023-07-30T07:45:17;97920.06;;;20.00;66.17
21300;BME280;10809;49.476;11.016;2023-07-30T07:47:51;97918.06;;;20.02;66.25
21300;BME280;10809;49.476;11.016;2023-07-30T07:50:22;97923.28;;;20.04;66.31
21300;BME280;10809;49.476;11.016;2023-07-30T07:53:00;97929.38;;;20.06;66.13
21300;BME280;10809;49.476;11.016;2023-07-30T07:55:39;97930.03;;;20.08;66.36
21300;BME280;10809;49.476;11.016;2023-07-30T07:58:11;97935.97;;;20.11;66.29
21300;BME280;10809;49.476;11.016;2023-07-30T08:00:43;97938.50;;;20.13;66.47
21300;BME280;10809;49.476;11.016;2023-07-30T08:03:33;97925.59;;;20.16;66.14
21300;BME280;10809;49.476;11.016;2023-07-30T08:06:08;97932.50;;;20.19;66.22
21300;BME280;10809;49.476;11.016;2023-07-30T08:08:48;97921.44;;;20.22;66.19
21300;BME280;10809;49.476;11.016;2023-07-30T08:11:20;97924.72;;;20.25;66.41
21300;BME280;10809;49.476;11.016;2023-07-30T08:14:06;97926.06;;;20.29;66.13
21300;BME280;10809;49.476;11.016;2023-07-30T08:16:42;97924.94;;;20.32;66.19
21300;BME280;10809;49.476;11.016;2023-07-30T08:19:14;97924.78;;;20.33;65.92
21300;BME280;10809;49.476;11.016;2023-07-30T08:21:47;97930.84;;;20.35;65.92
21300;BME280;10809;49.476;11.016;2023-07-30T08:24:20;97925.31;;;20.37;65.92
21300;BME280;10809;49.476;11.016;2023-07-30T08:26:54;97929.53;;;20.39;65.70
21300;BME280;10809;49.476;11.016;2023-07-30T08:29:26;97916.91;;;20.40;65.70
21300;BME280;10809;49.476;11.016;2023-07-30T08:31:57;97915.09;;;20.40;65.53
21300;BME280;10809;49.476;11.016;2023-07-30T08:34:43;97909.41;;;20.43;65.72
21300;BME280;10809;49.476;11.016;2023-07-30T08:37:14;97919.00;;;20.46;65.89
21300;BME280;10809;49.476;11.016;2023-07-30T08:39:44;97923.91;;;20.50;65.99
21300;BME280;10809;49.476;11.016;2023-07-30T08:42:15;97920.91;;;20.53;66.03
21300;BME280;10809;49.476;11.016;2023-07-30T08:44:46;97928.66;;;20.56;66.05
21300;BME280;10809;49.476;11.016;2023-07-30T08:47:16;97924.81;;;20.59;65.54
21300;BME280;10809;49.476;11.016;2023-07-30T08:49:46;97917.41;;;20.61;65.28
21300;BME280;10809;49.476;11.016;2023-07-30T08:52:20;97919.97;;;20.62;65.15
21300;BME280;10809;49.476;11.016;2023-07-30T08:54:56;97925.22;;;20.64;65.52
21300;BME280;10809;49.476;11.016;2023-07-30T08:57:32;97924.03;;;20.66;65.46
21300;BME280;10809;49.476;11.016;2023-07-30T09:00:08;97928.94;;;20.71;65.53
21300;BME280;10809;49.476;11.016;2023-07-30T09:02:52;97929.31;;;20.76;65.69
21300;BME280;10809;49.476;11.016;2023-07-30T09:05:26;97929.69;;;20.81;65.34
21300;BME280;10809;49.476;11.016;2023-07-30T09:07:59;97935.59;;;20.84;65.50
21300;BME280;10809;49.476;11.016;2023-07-30T09:10:30;97930.75;;;20.88;65.64
21300;BME280;10809;49.476;11.016;2023-07-30T09:13:01;97934.47;;;20.95;65.47
21300;BME280;10809;49.476;11.016;2023-07-30T09:15:34;97927.63;;;21.00;65.77
21300;BME280;10809;49.476;11.016;2023-07-30T09:18:07;97926.69;;;21.09;65.93
21300;BME280;10809;49.476;11.016;2023-07-30T09:20:39;97919.03;;;21.22;66.43
21300;BME280;10809;49.476;11.016;2023-07-30T09:23:11;97925.50;;;21.37;66.49
21300;BME280;10809;49.476;11.016;2023-07-30T09:25:41;97921.00;;;21.54;66.80
21300;BME280;10809;49.476;11.016;2023-07-30T09:28:12;97919.06;;;21.72;66.41
21300;BME280;10809;49.476;11.016;2023-07-30T09:30:42;97923.16;;;21.92;65.86
21300;BME280;10809;49.476;11.016;2023-07-30T09:33:18;97911.25;;;22.11;64.93
21300;BME280;10809;49.476;11.016;2023-07-30T09:35:49;97916.16;;;22.23;64.11
21300;BME280;10809;49.476;11.016;2023-07-30T09:38:19;97912.31;;;22.34;64.14
21300;BME280;10809;49.476;11.016;2023-07-30T09:41:00;97919.22;;;22.44;64.04
21300;BME280;10809;49.476;11.016;2023-07-30T09:43:35;97924.09;;;22.57;63.67
21300;BME280;10809;49.476;11.016;2023-07-30T09:46:06;97916.00;;;22.65;62.97
21300;BME280;10809;49.476;11.016;2023-07-30T09:48:37;97918.69;;;22.73;62.49
21300;BME280;10809;49.476;11.016;2023-07-30T09:51:08;97912.63;;;22.79;62.36
21300;BME280;10809;49.476;11.016;2023-07-30T09:53:39;97908.19;;;22.86;62.49
21300;BME280;10809;49.476;11.016;2023-07-30T09:56:10;97908.19;;;22.94;62.33
21300;BME280;10809;49.476;11.016;2023-07-30T09:58:40;97902.13;;;23.00;61.81
21300;BME280;10809;49.476;11.016;2023-07-30T10:01:12;97909.03;;;23.02;61.70
21300;BME280;10809;49.476;11.016;2023-07-30T10:03:43;97905.69;;;23.00;60.96
21300;BME280;10809;49.476;11.016;2023-07-30T10:06:17;97910.72;;;22.95;60.77
21300;BME280;10809;49.476;11.016;2023-07-30T10:08:48;97902.47;;;22.89;60.31
21300;BME280;10809;49.476;11.016;2023-07-30T10:11:19;97905.03;;;22.82;60.52
21300;BME280;10809;49.476;11.016;2023-07-30T10:13:51;97905.88;;;22.75;60.02
21300;BME280;10809;49.476;11.016;2023-07-30T10:16:29;97911.28;;;22.67;60.77
21300;BME280;10809;49.476;11.016;2023-07-30T10:19:00;97915.00;;;22.58;60.44
21300;BME280;10809;49.476;11.016;2023-07-30T10:21:42;97927.81;;;22.48;60.96
21300;BME280;10809;49.476;11.016;2023-07-30T10:24:12;97944.34;;;22.37;60.96
21300;BME280;10809;49.476;11.016;2023-07-30T10:26:43;97951.06;;;22.25;60.63
21300;BME280;10809;49.476;11.016;2023-07-30T10:29:16;97952.69;;;22.10;60.92
21300;BME280;10809;49.476;11.016;2023-07-30T10:31:54;97963.63;;;21.92;60.56
21300;BME280;10809;49.476;11.016;2023-07-30T10:34:27;97966.44;;;21.75;60.90
21300;BME280;10809;49.476;11.016;2023-07-30T10:37:18;97967.66;;;21.55;61.33
21300;BME280;10809;49.476;11.016;2023-07-30T10:39:53;97963.53;;;21.34;61.37
21300;BME280;10809;49.476;11.016;2023-07-30T10:42:24;97977.75;;;21.19;61.56
21300;BME280;10809;49.476;11.016;2023-07-30T10:45:07;97975.13;;;21.01;62.12
21300;BME280;10809;49.476;11.016;2023-07-30T10:47:40;97971.28;;;20.86;62.20
21300;BME280;10809;49.476;11.016;2023-07-30T10:50:14;97960.06;;;20.73;62.83
21300;BME280;10809;49.476;11.016;2023-07-30T10:52:50;97969.94;;;20.65;63.65
21300;BME280;10809;49.476;11.016;2023-07-30T10:55:29;97964.16;;;20.60;63.91
21300;BME280;10809;49.476;11.016;2023-07-30T10:58:01;97967.00;;;20.58;64.68
21300;BME280;10809;49.476;11.016;2023-07-30T11:00:31;97961.47;;;20.60;65.14
21300;BME280;10809;49.476;11.016;2023-07-30T11:03:05;97957.50;;;20.64;65.56
21300;BME280;10809;49.476;11.016;2023-07-30T11:05:42;97959.56;;;20.70;65.27
21300;BME280;10809;49.476;11.016;2023-07-30T11:08:12;97942.78;;;20.76;65.82
21300;BME280;10809;49.476;11.016;2023-07-30T11:10:44;97956.44;;;20.82;65.98
21300;BME280;10809;49.476;11.016;2023-07-30T11:13:15;97949.44;;;20.89;65.55
21300;BME280;10809;49.476;11.016;2023-07-30T11:15:46;97958.72;;;20.95;65.37
21300;BME280;10809;49.476;11.016;2023-07-30T11:18:17;97958.09;;;21.01;65.23
21300;BME280;10809;49.476;11.016;2023-07-30T11:20:47;97959.63;;;21.03;64.70
21300;BME280;10809;49.476;11.016;2023-07-30T11:23:23;97958.50;;;21.06;64.75
21300;BME280;10809;49.476;11.016;2023-07-30T11:25:57;97953.91;;;21.06;64.55
21300;BME280;10809;49.476;11.016;2023-07-30T11:28:37;97958.31;;;21.07;64.54
21300;BME280;10809;49.476;11.016;2023-07-30T11:31:10;97958.16;;;21.09;64.61
21300;BME280;10809;49.476;11.016;2023-07-30T11:33:43;97954.31;;;21.11;64.55
21300;BME280;10809;49.476;11.016;2023-07-30T11:36:22;97953.00;;;21.15;63.96
21300;BME280;10809;49.476;11.016;2023-07-30T11:38:54;97958.06;;;21.18;64.82
21300;BME280;10809;49.476;11.016;2023-07-30T11:41:28;97963.78;;;21.23;64.48
21300;BME280;10809;49.476;11.016;2023-07-30T11:43:59;97959.78;;;21.27;64.70
21300;BME280;10809;49.476;11.016;2023-07-30T11:46:32;97962.81;;;21.32;64.75
21300;BME280;10809;49.476;11.016;2023-07-30T11:49:15;97963.91;;;21.39;64.74
21300;BME280;10809;49.476;11.016;2023-07-30T11:51:49;97961.38;;;21.46;64.49
21300;BME280;10809;49.476;11.016;2023-07-30T11:54:22;97959.06;;;21.51;64.46
21300;BME280;10809;49.476;11.016;2023-07-30T11:56:55;97970.19;;;21.56;63.92
21300;BME280;10809;49.476;11.016;2023-07-30T11:59:30;97963.47;;;21.60;63.29
21300;BME280;10809;49.476;11.016;2023-07-30T12:02:01;97959.59;;;21.63;63.49
21300;BME280;10809;49.476;11.016;2023-07-30T12:04:44;97958.31;;;21.67;63.74
21300;BME280;10809;49.476;11.016;2023-07-30T12:07:25;97950.59;;;21.72;63.79
21300;BME280;10809;49.476;11.016;2023-07-30T12:10:06;97956.00;;;21.80;63.90
21300;BME280;10809;49.476;11.016;2023-07-30T12:12:43;97949.13;;;21.85;62.96
21300;BME280;10809;49.476;11.016;2023-07-30T12:15:23;97952.47;;;21.87;62.49
21300;BME280;10809;49.476;11.016;2023-07-30T12:17:53;97942.53;;;21.88;62.81
21300;BME280;10809;49.476;11.016;2023-07-30T12:20:27;97951.16;;;21.91;62.65
21300;BME280;10809;49.476;11.016;2023-07-30T12:22:58;97941.56;;;21.97;63.09
21300;BME280;10809;49.476;11.016;2023-07-30T12:25:29;97946.97;;;22.05;63.22
21300;BME280;10809;49.476;11.016;2023-07-30T12:27:59;97943.28;;;22.14;63.19
21300;BME280;10809;49.476;11.016;2023-07-30T12:30:30;97936.72;;;22.24;63.44
21300;BME280;10809;49.476;11.016;2023-07-30T12:33:01;97931.84;;;22.36;63.02
21300;BME280;10809;49.476;11.016;2023-07-30T12:35:32;97934.22;;;22.47;62.68
21300;BME280;10809;49.476;11.016;2023-07-30T12:38:03;97928.66;;;22.56;61.99
21300;BME280;10809;49.476;11.016;2023-07-30T12:40:34;97935.06;;;22.63;61.41
21300;BME280;10809;49.476;11.016;2023-07-30T12:43:05;97929.31;;;22.66;61.43
21300;BME280;10809;49.476;11.016;2023-07-30T12:45:35;97940.81;;;22.68;61.57
21300;BME280;10809;49.476;11.016;2023-07-30T12:48:06;97935.56;;;22.67;60.82
21300;BME280;10809;49.476;11.016;2023-07-30T12:50:38;97943.00;;;22.65;60.11
21300;BME280;10809;49.476;11.016;2023-07-30T12:53:09;97942.31;;;22.63;60.38
21300;BME280;10809;49.476;11.016;2023-07-30T12:55:39;97950.91;;;22.58;59.50
21300;BME280;10809;49.476;11.016;2023-07-30T12:58:10;97951.59;;;22.52;59.51
21300;BME280;10809;49.476;11.016;2023-07-30T13:00:43;97946.34;;;22.51;59.89
21300;BME280;10809;49.476;11.016;2023-07-30T13:03:14;97933.88;;;22.50;59.89
21300;BME280;10809;49.476;11.016;2023-07-30T13:05:44;97937.44;;;22.50;58.98
21300;BME280;10809;49.476;11.016;2023-07-30T13:08:15;97936.41;;;22.51;58.91
21300;BME280;10809;49.476;11.016;2023-07-30T13:10:45;97949.06;;;22.51;59.23
21300;BME280;10809;49.476;11.016;2023-07-30T13:13:16;97944.34;;;22.53;58.76
21300;BME280;10809;49.476;11.016;2023-07-30T13:15:47;97942.16;;;22.56;58.88
21300;BME280;10809;49.476;11.016;2023-07-30T13:18:17;97930.00;;;22.60;58.49
21300;BME280;10809;49.476;11.016;2023-07-30T13:20:47;97943.84;;;22.65;57.79
21300;BME280;10809;49.476;11.016;2023-07-30T13:23:21;97935.75;;;22.73;58.01
21300;BME280;10809;49.476;11.016;2023-07-30T13:25:52;97933.88;;;22.82;57.99